Time;durP1;ratioP1;P1;durP2;ratioP2;P2;SDS_P1;SDS_P2;PMS_P1;PMS_P2;Temp;Humidity;BMP_temperature;BMP_pressure;BME280_temperature;BME280_humidity;BME280_pressure;Samples;Min_cycle;Max_cycle;Signal;HPM_P1;HPM_P2
2021/10/27 00:01:10;;;;;;;0.40;0.40;;;13.50;99.90;;;;;;5034005;28;20193;-69
2021/10/27 00:03:36;;;;;;;1.83;1.63;;;13.60;99.90;;;;;;5034809;28;20276;-70
2021/10/27 00:06:02;;;;;;;0.30;0.20;;;13.50;99.90;;;;;;5034852;28;20603;-70
2021/10/27 00:08:28;;;;;;;3.23;1.50;;;13.60;99.90;;;;;;5034463;28;20432;-70
2021/10/27 00:10:54;;;;;;;0.90;0.85;;;13.60;99.90;;;;;;5033547;28;20642;-69
2021/10/27 00:13:20;;;;;;;0.97;0.97;;;13.60;99.90;;;;;;5034683;28;20272;-71
2021/10/27 00:15:46;;;;;;;0.60;0.53;;;13.60;99.90;;;;;;5034465;28;20189;-70
2021/10/27 00:18:12;;;;;;;1.15;1.08;;;13.60;99.90;;;;;;5034161;28;20428;-70
2021/10/27 00:20:38;;;;;;;7.63;2.87;;;13.60;99.90;;;;;;5033210;28;20597;-71
2021/10/27 00:23:03;;;;;;;0.63;0.50;;;13.60;99.90;;;;;;5034364;28;20430;-69
2021/10/27 00:25:29;;;;;;;1.33;0.30;;;13.60;99.90;;;;;;5034151;28;20192;-68
2021/10/27 00:27:54;;;;;;;0.30;0.20;;;13.50;99.90;;;;;;5034295;28;20182;-71
2021/10/27 00:30:20;;;;;;;0.40;0.30;;;13.40;99.90;;;;;;5034133;28;20254;-71
2021/10/27 00:32:45;;;;;;;4.90;1.70;;;13.50;99.90;;;;;;5034620;28;20303;-68
2021/10/27 00:35:11;;;;;;;0.97;0.43;;;13.60;99.90;;;;;;5033147;28;20170;-70
2021/10/27 00:37:37;;;;;;;1.37;1.27;;;13.60;99.90;;;;;;5033300;28;20177;-69
2021/10/27 00:40:04;;;;;;;0.97;0.97;;;13.50;99.90;;;;;;5033766;28;20238;-70
2021/10/27 00:42:30;;;;;;;1.10;1.02;;;13.50;99.90;;;;;;5034957;28;20954;-70
2021/10/27 00:44:55;;;;;;;0.40;0.30;;;13.50;99.90;;;;;;5034089;28;20252;-70
2021/10/27 00:47:21;;;;;;;1.50;1.40;;;13.50;99.90;;;;;;5034084;28;20197;-70
2021/10/27 00:49:47;;;;;;;1.27;1.23;;;13.40;99.90;;;;;;5034100;28;20187;-70
2021/10/27 00:52:16;;;;;;;0.70;0.63;;;13.60;99.90;;;;;;5034032;28;20205;-69
2021/10/27 00:54:45;;;;;;;2.67;1.80;;;13.60;99.90;;;;;;5033872;28;20186;-68
2021/10/27 00:57:17;;;;;;;1.50;0.63;;;13.50;99.90;;;;;;5033674;28;20205;-68
2021/10/27 00:59:45;;;;;;;2.40;1.85;;;13.50;99.90;;;;;;5033813;28;20193;-70
2021/10/27 01:02:13;;;;;;;0.30;0.20;;;13.50;99.90;;;;;;5033448;28;20185;-71
2021/10/27 01:04:40;;;;;;;1.25;0.95;;;13.50;99.90;;;;;;5033273;28;20189;-71
2021/10/27 01:07:06;;;;;;;3.03;0.77;;;13.50;99.90;;;;;;5033829;28;20630;-70
2021/10/27 01:09:33;;;;;;;0.77;0.67;;;13.50;99.90;;;;;;5033786;28;20190;-70
2021/10/27 01:12:02;;;;;;;4.78;4.40;;;13.50;99.90;;;;;;5033861;28;20315;-70
2021/10/27 01:14:36;;;;;;;2.10;1.80;;;13.60;99.90;;;;;;5033695;28;20196;-70
2021/10/27 01:17:03;;;;;;;0.30;0.20;;;13.40;99.90;;;;;;5033966;28;20632;-72
2021/10/27 01:19:34;;;;;;;5.35;1.63;;;13.50;99.90;;;;;;5033725;28;20224;-71
2021/10/27 01:21:59;;;;;;;0.75;0.75;;;13.50;99.90;;;;;;5033576;28;20268;-69
2021/10/27 01:24:25;;;;;;;1.93;1.80;;;13.50;99.90;;;;;;5032629;28;20553;-70
2021/10/27 01:26:50;;;;;;;4.87;1.80;;;13.60;99.90;;;;;;5033790;28;20193;-69
2021/10/27 01:29:16;;;;;;;1.27;0.57;;;13.50;99.90;;;;;;5033299;28;20188;-70
2021/10/27 01:31:41;;;;;;;2.00;1.40;;;13.60;99.90;;;;;;5036006;28;20221;-70
2021/10/27 01:34:07;;;;;;;2.33;2.13;;;13.60;99.90;;;;;;5037771;28;20203;-69
2021/10/27 01:36:33;;;;;;;1.27;0.87;;;13.60;99.90;;;;;;5037625;28;20177;-70
2021/10/27 01:38:58;;;;;;;2.30;1.70;;;13.60;99.90;;;;;;5037411;28;20181;-70
2021/10/27 01:41:24;;;;;;;4.93;4.43;;;13.50;99.90;;;;;;5037417;28;20247;-69
2021/10/27 01:43:55;;;;;;;1.60;1.40;;;13.60;99.90;;;;;;5037544;28;20185;-71
2021/10/27 01:46:35;;;;;;;1.65;1.30;;;13.60;99.90;;;;;;5036480;28;20204;-71
2021/10/27 01:49:05;;;;;;;4.00;1.80;;;13.50;99.90;;;;;;5036570;28;20614;-70
2021/10/27 01:51:31;;;;;;;1.73;1.63;;;13.50;99.90;;;;;;5037070;28;20259;-70
2021/10/27 01:53:57;;;;;;;0.77;0.73;;;13.60;99.90;;;;;;5037279;28;20246;-71
2021/10/27 01:56:25;;;;;;;0.30;0.20;;;13.60;99.90;;;;;;5037190;28;20180;-70
2021/10/27 01:58:52;;;;;;;2.65;2.42;;;13.50;99.90;;;;;;5035639;28;20498;-69
2021/10/27 02:01:18;;;;;;;0.75;0.63;;;13.50;99.90;;;;;;5036249;28;20649;-69
2021/10/27 02:03:44;;;;;;;0.55;0.55;;;13.50;99.90;;;;;;5036470;28;20208;-70
2021/10/27 02:06:10;;;;;;;0.50;0.43;;;13.50;99.90;;;;;;5020182;28;20630;-71
2021/10/27 02:08:35;;;;;;;2.05;1.95;;;13.70;99.90;;;;;;5036301;28;20231;-70
2021/10/27 02:11:01;;;;;;;1.47;1.37;;;13.60;99.90;;;;;;5036365;28;20197;-70
2021/10/27 02:13:27;;;;;;;1.47;1.03;;;13.60;99.90;;;;;;5036241;28;20223;-70
2021/10/27 02:15:54;;;;;;;0.40;0.30;;;13.60;99.90;;;;;;5036086;28;20645;-69
2021/10/27 02:18:19;;;;;;;2.53;2.03;;;13.70;99.90;;;;;;5035933;28;20276;-71
2021/10/27 02:20:45;;;;;;;1.00;1.00;;;13.70;99.90;;;;;;5036220;28;20332;-70
2021/10/27 02:23:12;;;;;;;1.25;1.20;;;13.60;99.90;;;;;;5036372;28;20180;-68
2021/10/27 02:25:40;;;;;;;1.70;1.02;;;13.50;99.90;;;;;;5037641;28;20260;-69
2021/10/27 02:28:06;;;;;;;4.65;3.50;;;13.60;99.90;;;;;;5037545;28;20189;-70
2021/10/27 02:30:31;;;;;;;0.30;0.30;;;13.60;99.90;;;;;;5047263;28;20610;-68
2021/10/27 02:32:57;;;;;;;0.30;0.20;;;13.60;99.90;;;;;;5037013;28;20197;-69
2021/10/27 02:35:23;;;;;;;4.20;2.43;;;13.80;99.90;;;;;;5038942;28;20184;-69
2021/10/27 02:37:49;;;;;;;4.37;3.97;;;13.80;99.90;;;;;;5045444;28;20173;-71
2021/10/27 02:40:16;;;;;;;3.00;1.40;;;13.80;99.90;;;;;;5033948;28;20501;-71
2021/10/27 02:42:41;;;;;;;0.65;0.52;;;13.80;99.90;;;;;;5033770;28;20200;-70
2021/10/27 02:45:09;;;;;;;0.40;0.20;;;13.70;99.90;;;;;;5035560;28;20185;-69
2021/10/27 02:47:35;;;;;;;3.13;2.83;;;13.70;99.90;;;;;;5035896;28;20256;-69
2021/10/27 02:50:01;;;;;;;9.83;3.70;;;13.80;99.90;;;;;;5034945;28;20209;-71
2021/10/27 02:52:26;;;;;;;0.70;0.70;;;13.70;99.90;;;;;;5035335;28;20853;-70
2021/10/27 02:54:52;;;;;;;2.30;1.90;;;13.70;99.90;;;;;;5035959;28;20435;-70
2021/10/27 02:57:17;;;;;;;1.23;0.80;;;13.80;99.90;;;;;;5035742;28;20513;-70
2021/10/27 02:59:43;;;;;;;0.30;0.20;;;13.70;99.90;;;;;;5035690;28;20639;-70
2021/10/27 03:02:08;;;;;;;3.63;1.80;;;13.80;99.90;;;;;;5036253;28;20638;-71
2021/10/27 03:04:34;;;;;;;0.80;0.80;;;13.90;99.90;;;;;;5035017;28;20599;-71
2021/10/27 03:06:59;;;;;;;0.30;0.20;;;13.80;99.90;;;;;;5035718;28;20185;-71
2021/10/27 03:09:25;;;;;;;0.73;0.73;;;13.90;99.90;;;;;;5034600;28;20193;-69
2021/10/27 03:11:53;;;;;;;0.30;0.20;;;14.00;99.90;;;;;;5034485;28;20202;-70
2021/10/27 03:14:19;;;;;;;0.43;0.30;;;14.10;99.90;;;;;;5035736;28;20181;-70
2021/10/27 03:16:45;;;;;;;0.88;0.88;;;13.90;99.90;;;;;;5034278;28;20177;-70
2021/10/27 03:19:10;;;;;;;3.03;0.37;;;13.90;99.90;;;;;;5035231;28;20180;-70
2021/10/27 03:21:36;;;;;;;9.97;3.43;;;13.90;99.90;;;;;;5035236;28;20634;-71
2021/10/27 03:24:02;;;;;;;1.73;1.63;;;13.80;99.90;;;;;;5035105;28;20570;-71
2021/10/27 03:26:27;;;;;;;0.33;0.20;;;13.70;99.90;;;;;;5034408;28;20185;-71
2021/10/27 03:28:53;;;;;;;3.17;2.87;;;13.80;99.90;;;;;;5035712;28;20241;-71
2021/10/27 03:31:19;;;;;;;0.63;0.30;;;13.90;99.90;;;;;;5035410;28;20217;-71
2021/10/27 03:33:44;;;;;;;3.50;3.30;;;13.90;99.90;;;;;;5035201;28;20235;-71
2021/10/27 03:36:10;;;;;;;0.53;0.53;;;13.80;99.90;;;;;;5035323;28;20189;-70
2021/10/27 03:38:36;;;;;;;0.70;0.70;;;13.90;99.90;;;;;;5034683;28;20495;-70
2021/10/27 03:41:02;;;;;;;4.33;2.60;;;13.90;99.90;;;;;;5034943;28;20504;-69
2021/10/27 03:43:28;;;;;;;1.33;1.33;;;13.80;99.90;;;;;;5034645;28;20427;-69
2021/10/27 03:45:54;;;;;;;5.88;1.65;;;13.80;99.90;;;;;;5034648;28;20227;-68
2021/10/27 03:48:19;;;;;;;8.87;6.07;;;13.80;99.90;;;;;;5034786;28;20186;-70
2021/10/27 03:50:45;;;;;;;0.60;0.53;;;13.90;99.90;;;;;;5035483;28;20427;-70
2021/10/27 03:53:11;;;;;;;1.93;1.00;;;13.80;99.90;;;;;;5034161;28;20292;-71
2021/10/27 03:55:37;;;;;;;0.30;0.20;;;13.80;99.90;;;;;;5033942;28;20204;-72
2021/10/27 03:58:03;;;;;;;2.88;1.35;;;13.80;99.90;;;;;;5034676;28;20213;-71
2021/10/27 04:00:29;;;;;;;2.67;2.47;;;13.80;99.90;;;;;;5034698;28;20208;-71
2021/10/27 04:02:54;;;;;;;0.43;0.43;;;13.80;99.90;;;;;;5034933;28;20436;-71
2021/10/27 04:05:21;;;;;;;1.37;0.80;;;13.80;99.90;;;;;;5035065;28;20185;-70
2021/10/27 04:07:46;;;;;;;2.15;1.85;;;13.80;99.90;;;;;;5034692;28;20256;-71
2021/10/27 04:10:12;;;;;;;2.20;2.00;;;13.70;99.90;;;;;;5034496;28;20209;-71
2021/10/27 04:12:40;;;;;;;1.00;1.00;;;13.80;99.90;;;;;;5034359;28;20212;-71
2021/10/27 04:15:08;;;;;;;1.98;1.75;;;13.80;99.90;;;;;;5033810;28;20204;-72
2021/10/27 04:17:35;;;;;;;2.30;2.20;;;13.80;99.90;;;;;;5034165;28;20181;-72
2021/10/27 04:20:05;;;;;;;1.67;1.58;;;13.90;99.90;;;;;;5034687;28;20173;-71
2021/10/27 04:22:32;;;;;;;1.25;0.95;;;13.90;99.90;;;;;;5034509;28;20193;-71
2021/10/27 04:24:57;;;;;;;0.30;0.20;;;13.90;99.90;;;;;;5034178;28;20181;-71
2021/10/27 04:27:23;;;;;;;2.53;2.43;;;13.80;99.90;;;;;;5034640;28;20188;-71
2021/10/27 04:29:48;;;;;;;1.80;1.70;;;13.90;99.90;;;;;;5034226;28;20178;-71
2021/10/27 04:32:14;;;;;;;0.60;0.60;;;13.90;99.90;;;;;;5034436;28;20201;-71
2021/10/27 04:34:40;;;;;;;0.83;0.30;;;14.00;99.90;;;;;;5034214;28;20169;-71
2021/10/27 04:37:09;;;;;;;1.33;1.20;;;14.00;99.90;;;;;;5034550;28;20181;-71
2021/10/27 04:39:35;;;;;;;5.25;2.15;;;14.00;99.90;;;;;;5034553;28;20264;-71
2021/10/27 04:42:01;;;;;;;0.70;0.68;;;14.00;99.90;;;;;;5034629;28;20259;-71
2021/10/27 04:44:27;;;;;;;0.43;0.32;;;14.00;99.90;;;;;;5034256;28;20619;-71
2021/10/27 04:46:53;;;;;;;3.33;3.03;;;13.90;99.90;;;;;;5034079;28;20208;-71
2021/10/27 04:49:18;;;;;;;2.03;1.67;;;13.90;99.90;;;;;;5033798;28;20170;-71
2021/10/27 04:51:44;;;;;;;2.47;2.10;;;14.00;99.90;;;;;;5033712;28;20263;-72
2021/10/27 04:54:09;;;;;;;4.83;2.73;;;14.10;99.90;;;;;;5032455;28;20192;-71
2021/10/27 04:56:35;;;;;;;3.20;2.43;;;14.10;99.90;;;;;;5033688;28;20273;-72
2021/10/27 04:59:01;;;;;;;1.93;0.87;;;14.10;99.90;;;;;;5033449;28;20182;-71
2021/10/27 05:01:27;;;;;;;1.63;1.40;;;14.00;99.90;;;;;;5033876;28;20185;-72
2021/10/27 05:03:53;;;;;;;1.60;1.40;;;14.00;99.90;;;;;;5034061;28;20198;-72
2021/10/27 05:06:19;;;;;;;0.67;0.67;;;14.00;99.90;;;;;;5037137;28;20424;-71
2021/10/27 05:08:47;;;;;;;1.02;0.80;;;14.00;99.90;;;;;;5039615;28;20626;-71
2021/10/27 05:11:12;;;;;;;2.42;1.70;;;14.10;99.90;;;;;;5039290;28;20220;-72
2021/10/27 05:13:38;;;;;;;0.97;0.40;;;14.10;99.90;;;;;;5040193;28;20233;-71
2021/10/27 05:16:04;;;;;;;0.77;0.77;;;14.20;99.90;;;;;;5040981;28;20199;-71
2021/10/27 05:18:29;;;;;;;1.03;0.93;;;14.20;99.90;;;;;;5039035;28;20241;-72
2021/10/27 05:20:55;;;;;;;0.70;0.70;;;14.20;99.90;;;;;;5040221;28;20514;-72
2021/10/27 05:23:21;;;;;;;1.60;1.00;;;14.30;99.90;;;;;;5040529;28;20660;-71
2021/10/27 05:25:47;;;;;;;1.37;0.50;;;14.30;99.90;;;;;;5040236;28;20428;-71
2021/10/27 05:28:12;;;;;;;0.83;0.83;;;14.20;99.90;;;;;;5038840;28;20276;-71
2021/10/27 05:30:38;;;;;;;0.30;0.20;;;14.20;99.90;;;;;;5040294;28;20185;-71
2021/10/27 05:33:04;;;;;;;3.80;1.40;;;14.30;99.90;;;;;;5037562;28;20672;-71
2021/10/27 05:35:31;;;;;;;5.80;3.70;;;14.30;99.90;;;;;;5032309;28;20436;-71
2021/10/27 05:37:59;;;;;;;0.30;0.20;;;14.40;99.90;;;;;;5041974;28;20174;-72
2021/10/27 05:40:24;;;;;;;1.23;0.55;;;14.40;99.90;;;;;;5040938;28;20200;-71
2021/10/27 05:42:51;;;;;;;2.93;2.27;;;14.40;99.90;;;;;;5040719;28;20606;-71
2021/10/27 05:45:18;;;;;;;0.40;0.22;;;14.30;99.90;;;;;;5040283;28;20444;-71
2021/10/27 05:47:47;;;;;;;0.68;0.68;;;14.40;99.90;;;;;;5040281;28;20213;-71
2021/10/27 05:50:26;;;;;;;0.30;0.10;;;14.40;99.90;;;;;;5039523;28;20188;-72
2021/10/27 05:55:49;;;;;;;0.30;0.10;;;14.60;99.90;;;;;;4986902;28;20225;-71
2021/10/27 05:58:15;;;;;;;0.40;0.20;;;14.50;99.90;;;;;;5039500;28;20201;-71
2021/10/27 06:00:43;;;;;;;3.58;3.33;;;14.60;99.90;;;;;;5040377;28;20177;-71
2021/10/27 06:03:09;;;;;;;0.80;0.80;;;14.40;99.90;;;;;;5033189;28;20185;-72
2021/10/27 06:05:36;;;;;;;1.50;1.00;;;14.40;99.90;;;;;;5030986;28;20495;-72
2021/10/27 06:08:02;;;;;;;1.05;1.05;;;14.30;99.90;;;;;;5039968;28;20519;-71
2021/10/27 06:10:28;;;;;;;0.40;0.30;;;14.40;99.90;;;;;;5040200;28;20344;-71
2021/10/27 06:12:58;;;;;;;2.33;1.70;;;14.50;99.90;;;;;;5039688;28;20328;-72
2021/10/27 06:15:24;;;;;;;0.30;0.20;;;14.50;99.90;;;;;;5039190;28;20888;-71
2021/10/27 06:17:50;;;;;;;0.80;0.80;;;14.60;99.90;;;;;;5036962;28;20182;-71
2021/10/27 06:20:16;;;;;;;4.30;2.03;;;14.50;99.90;;;;;;5030023;28;20614;-72
2021/10/27 06:22:43;;;;;;;1.77;1.57;;;14.60;99.90;;;;;;5036177;28;20193;-71
2021/10/27 06:25:11;;;;;;;1.80;1.35;;;14.40;99.90;;;;;;5036919;28;20799;-71
2021/10/27 06:27:38;;;;;;;0.43;0.43;;;14.40;99.90;;;;;;5036600;28;20652;-72
2021/10/27 06:30:10;;;;;;;0.75;0.75;;;14.40;99.90;;;;;;5036306;28;20251;-72
2021/10/27 06:32:53;;;;;;;2.95;1.35;;;14.40;99.90;;;;;;5036450;28;20201;-71
2021/10/27 06:35:24;;;;;;;0.38;0.28;;;14.40;99.90;;;;;;5036257;28;20173;-71
2021/10/27 06:48:31;;;;;;;0.30;0.20;;;14.40;99.90;;;;;;5038157;28;20191;-68
2021/10/27 06:50:57;;;;;;;2.20;1.65;;;14.50;99.90;;;;;;5018409;28;20665;-70
2021/10/27 06:53:22;;;;;;;1.90;1.17;;;14.40;99.90;;;;;;5018035;28;20208;-67
2021/10/27 06:55:48;;;;;;;3.67;2.33;;;14.30;99.90;;;;;;5018517;28;20178;-66
2021/10/27 06:58:18;;;;;;;3.70;1.60;;;14.40;99.90;;;;;;5035606;28;20264;-67
2021/10/27 07:00:53;;;;;;;2.05;1.95;;;14.40;99.90;;;;;;5035699;28;20181;-68
2021/10/27 07:16:59;;;;;;;1.45;1.35;;;14.50;99.90;;;;;;5035575;28;20187;-72
2021/10/27 07:19:24;;;;;;;2.87;2.47;;;14.40;99.90;;;;;;5035154;28;20177;-71
2021/10/27 07:21:50;;;;;;;5.47;3.93;;;14.40;99.90;;;;;;5035446;28;20193;-71
2021/10/27 07:24:16;;;;;;;0.37;0.20;;;14.40;99.90;;;;;;5035373;28;20185;-70
2021/10/27 07:26:42;;;;;;;8.57;7.95;;;14.40;99.90;;;;;;5035274;28;20342;-68
2021/10/27 07:29:08;;;;;;;0.63;0.63;;;14.50;99.90;;;;;;5034981;28;20231;-69
2021/10/27 07:31:34;;;;;;;0.57;0.57;;;14.60;99.90;;;;;;5035426;28;20582;-69
2021/10/27 07:34:07;;;;;;;1.17;0.93;;;14.70;99.90;;;;;;5035202;28;20549;-70
2021/10/27 07:39:53;;;;;;;1.77;0.65;;;14.60;99.90;;;;;;5035279;28;20802;-69
2021/10/27 07:42:11;;;;;;;4.55;2.25;;;14.80;99.90;;;;;;5035065;28;20192;-70
2021/10/27 07:44:37;;;;;;;0.93;0.87;;;14.70;99.90;;;;;;5034546;28;20260;-70
2021/10/27 07:47:04;;;;;;;1.53;1.40;;;14.60;99.90;;;;;;5040592;28;20632;-70
2021/10/27 07:49:29;;;;;;;0.47;0.40;;;14.50;99.90;;;;;;5044163;28;20549;-70
2021/10/27 07:51:55;;;;;;;1.80;1.03;;;14.50;99.90;;;;;;5034558;28;20300;-69
2021/10/27 07:54:21;;;;;;;3.43;2.80;;;14.60;99.90;;;;;;5034531;28;20491;-70
2021/10/27 07:56:47;;;;;;;2.33;2.00;;;14.60;99.90;;;;;;5034394;28;20185;-71
2021/10/27 07:59:15;;;;;;;2.80;2.45;;;14.70;99.90;;;;;;5034282;28;20165;-68
2021/10/27 08:01:40;;;;;;;5.22;2.70;;;14.60;99.90;;;;;;5034820;28;20185;-69
2021/10/27 08:04:06;;;;;;;4.30;2.03;;;14.70;99.90;;;;;;5035042;28;20178;-69
2021/10/27 08:06:31;;;;;;;2.47;2.30;;;14.60;99.90;;;;;;5034739;28;20227;-69
2021/10/27 08:08:57;;;;;;;1.47;1.37;;;14.60;99.90;;;;;;5034132;28;20173;-68
2021/10/27 08:11:25;;;;;;;0.93;0.87;;;14.70;99.90;;;;;;5034123;28;20178;-69
2021/10/27 08:13:51;;;;;;;0.40;0.40;;;14.70;99.90;;;;;;5049970;28;20207;-69
2021/10/27 08:16:17;;;;;;;0.30;0.20;;;14.70;99.90;;;;;;5017900;28;20189;-69
2021/10/27 08:18:43;;;;;;;0.30;0.20;;;14.90;99.90;;;;;;5033751;28;20320;-68
2021/10/27 08:21:08;;;;;;;2.60;1.80;;;14.90;99.90;;;;;;5034242;28;20211;-68
2021/10/27 08:23:39;;;;;;;1.27;1.20;;;14.90;99.90;;;;;;5033886;28;20215;-68
2021/10/27 08:26:08;;;;;;;1.05;0.68;;;14.90;99.90;;;;;;5033827;28;20396;-68
2021/10/27 08:28:50;;;;;;;0.30;0.17;;;14.90;99.90;;;;;;5033756;28;20185;-69
2021/10/27 08:34:08;;;;;;;8.93;2.85;;;15.00;99.90;;;;;;5033591;28;20243;-69
2021/10/27 08:36:34;;;;;;;0.30;0.20;;;14.80;99.90;;;;;;5033547;28;20166;-68
2021/10/27 08:39:01;;;;;;;0.65;0.65;;;14.90;99.90;;;;;;5033519;28;20186;-67
2021/10/27 08:41:26;;;;;;;3.42;3.22;;;15.00;99.90;;;;;;5032955;28;20507;-68
2021/10/27 08:43:52;;;;;;;2.10;1.73;;;15.10;99.90;;;;;;5033814;28;20177;-69
2021/10/27 08:46:18;;;;;;;1.07;1.03;;;15.20;99.90;;;;;;5033703;28;20181;-69
2021/10/27 08:48:49;;;;;;;0.30;0.20;;;15.40;99.90;;;;;;5033441;28;20177;-68
2021/10/27 08:51:16;;;;;;;1.92;1.85;;;15.30;99.90;;;;;;5015861;28;20201;-68
2021/10/27 08:53:41;;;;;;;0.95;0.95;;;15.40;99.90;;;;;;5033575;28;20169;-68
2021/10/27 08:56:09;;;;;;;2.30;2.20;;;15.40;99.90;;;;;;5033461;28;20227;-69
2021/10/27 08:58:45;;;;;;;0.30;0.20;;;15.50;99.90;;;;;;5033345;28;20599;-70
2021/10/27 09:06:50;;;;;;;2.20;0.82;;;15.50;99.90;;;;;;5033940;28;20183;-69
2021/10/27 09:35:13;;;;;;;0.73;0.73;;;15.30;99.90;;;;;;5033266;28;20200;-66
2021/10/27 09:41:09;;;;;;;1.85;1.38;;;15.20;99.90;;;;;;5033108;28;20590;-67
2021/10/27 10:05:08;;;;;;;0.93;0.68;;;15.50;99.90;;;;;;5036673;28;20199;-67
2021/10/27 10:07:35;;;;;;;2.25;1.95;;;15.50;99.90;;;;;;5036618;28;20193;-67
2021/10/27 10:10:03;;;;;;;1.85;0.65;;;15.40;99.90;;;;;;5036141;28;20209;-68
2021/10/27 10:12:45;;;;;;;1.02;0.65;;;15.20;99.90;;;;;;5035723;28;20209;-68
2021/10/27 10:15:11;;;;;;;0.63;0.63;;;15.30;99.90;;;;;;5018300;28;20181;-67
2021/10/27 10:17:40;;;;;;;0.45;0.43;;;15.30;99.90;;;;;;5035850;28;20197;-67
2021/10/27 10:20:09;;;;;;;0.30;0.10;;;15.30;99.90;;;;;;5035479;28;20300;-67
2021/10/27 10:22:39;;;;;;;0.75;0.40;;;15.40;99.90;;;;;;5019297;28;20197;-69
2021/10/27 10:25:14;;;;;;;0.85;0.85;;;15.50;99.90;;;;;;5036683;28;20255;-71
2021/10/27 10:27:40;;;;;;;0.30;0.20;;;15.40;99.90;;;;;;5035950;28;20541;-69
2021/10/27 10:30:40;;;;;;;0.40;0.20;;;15.40;99.90;;;;;;5017821;28;20545;-70
2021/10/27 10:33:13;;;;;;;2.47;0.70;;;15.50;99.90;;;;;;5035449;28;20204;-69
2021/10/27 10:35:51;;;;;;;0.30;0.20;;;15.50;99.90;;;;;;5036034;28;20471;-70
2021/10/27 11:25:24;;;;;;;0.90;0.82;;;16.00;99.90;;;;;;5019780;28;20258;-66
2021/10/27 11:38:52;;;;;;;0.40;0.10;;;16.00;99.90;;;;;;5034191;28;20228;-67
2021/10/27 11:41:39;;;;;;;1.35;1.25;;;16.00;99.90;;;;;;5034418;28;20177;-71
2021/10/27 11:44:15;;;;;;;2.22;1.23;;;15.90;99.90;;;;;;5034125;28;20356;-69
2021/10/27 11:46:43;;;;;;;1.13;1.08;;;15.80;99.90;;;;;;5031096;28;20670;-67
2021/10/27 11:49:10;;;;;;;0.30;0.20;;;15.80;99.90;;;;;;5034108;28;20185;-68
2021/10/27 11:51:37;;;;;;;0.40;0.40;;;15.90;99.90;;;;;;5009078;28;20177;-71
2021/10/27 11:54:15;;;;;;;0.40;0.20;;;16.10;99.90;;;;;;5034661;28;20557;-68
2021/10/27 11:56:41;;;;;;;0.30;0.15;;;15.90;99.90;;;;;;5031784;28;20192;-72
2021/10/27 11:59:07;;;;;;;0.40;0.20;;;16.10;99.90;;;;;;5030055;28;20575;-68
2021/10/27 12:01:35;;;;;;;0.40;0.30;;;16.20;99.90;;;;;;5033515;28;20514;-72
2021/10/27 12:04:12;;;;;;;0.50;0.30;;;15.90;99.90;;;;;;5015123;28;20435;-70
2021/10/27 12:19:56;;;;;;;0.40;0.20;;;15.60;99.90;;;;;;5032018;28;20440;-70
2021/10/27 12:22:23;;;;;;;0.30;0.20;;;15.70;99.90;;;;;;5034354;28;20660;-71
2021/10/27 12:24:56;;;;;;;0.40;0.20;;;15.80;99.90;;;;;;5033959;28;20185;-71
2021/10/27 12:27:29;;;;;;;0.68;0.52;;;15.90;99.90;;;;;;5028983;28;20232;-69
2021/10/27 12:30:01;;;;;;;1.63;1.50;;;15.90;99.90;;;;;;5026339;28;20614;-69
2021/10/27 12:32:27;;;;;;;0.50;0.50;;;15.90;99.90;;;;;;5034534;28;20235;-69
2021/10/27 12:35:08;;;;;;;1.42;1.33;;;15.70;99.90;;;;;;5032693;28;20957;-69
2021/10/27 12:40:14;;;;;;;0.77;0.60;;;15.90;99.90;;;;;;5033377;28;20173;-69
2021/10/27 12:42:40;;;;;;;0.30;0.10;;;15.80;99.90;;;;;;5032189;28;20846;-69
2021/10/27 12:45:07;;;;;;;0.95;0.63;;;15.80;99.90;;;;;;5033459;28;20188;-69
2021/10/27 12:47:35;;;;;;;0.40;0.20;;;15.90;99.90;;;;;;5037067;28;20692;-69
2021/10/27 12:50:06;;;;;;;0.40;0.30;;;16.00;99.90;;;;;;5015380;28;20198;-69
2021/10/27 12:52:59;;;;;;;2.15;2.08;;;15.80;99.90;;;;;;5029765;28;20638;-69
2021/10/27 12:55:43;;;;;;;0.68;0.55;;;15.70;99.90;;;;;;5028213;28;20242;-68
2021/10/27 12:58:13;;;;;;;0.47;0.47;;;15.70;99.90;;;;;;5033109;28;20174;-69
2021/10/27 13:01:15;;;;;;;0.40;0.30;;;15.50;99.90;;;;;;5030024;28;20212;-69
2021/10/27 13:06:34;;;;;;;0.43;0.40;;;15.60;99.90;;;;;;5031803;28;20619;-69
2021/10/27 13:30:56;;;;;;;0.40;0.30;;;15.80;99.90;;;;;;5035886;28;20278;-67
2021/10/27 13:33:23;;;;;;;1.23;1.03;;;15.60;99.90;;;;;;5034197;28;20271;-68
2021/10/27 13:35:50;;;;;;;1.10;1.10;;;15.50;99.90;;;;;;5019881;28;20901;-68
2021/10/27 13:38:17;;;;;;;0.65;0.65;;;15.60;99.90;;;;;;5036558;28;20231;-68
2021/10/27 13:40:45;;;;;;;0.43;0.40;;;15.50;99.90;;;;;;5037056;28;20186;-68
2021/10/27 13:43:23;;;;;;;2.73;2.53;;;15.60;99.90;;;;;;5037185;28;20189;-69
2021/10/27 14:07:44;;;;;;;0.40;0.30;;;15.60;99.90;;;;;;5034803;28;20196;-70
2021/10/27 14:10:31;;;;;;;1.27;1.17;;;15.70;99.90;;;;;;5026955;28;20356;-68
2021/10/27 14:13:16;;;;;;;1.67;1.38;;;15.80;99.90;;;;;;5036029;28;20205;-68
2021/10/27 14:16:01;;;;;;;0.35;0.17;;;16.00;99.90;;;;;;5036286;28;20169;-67
2021/10/27 14:18:40;;;;;;;0.60;0.45;;;15.80;99.90;;;;;;5021545;28;20189;-67
2021/10/27 14:58:42;;;;;;;0.45;0.20;;;15.80;99.90;;;;;;5037186;28;20220;-68
2021/10/27 15:21:17;;;;;;;0.30;0.20;;;15.50;92.90;;;;;;5030601;28;20188;-71
2021/10/27 15:23:59;;;;;;;0.40;0.30;;;15.60;97.20;;;;;;5035846;28;20189;-71
2021/10/27 15:29:32;;;;;;;1.67;0.52;;;15.70;65.70;;;;;;5035399;28;20623;-71
2021/10/27 15:43:35;;;;;;;0.40;0.30;;;15.80;1.00;;;;;;5035380;28;20622;-69
2021/10/27 15:51:13;;;;;;;0.40;0.20;;;15.90;1.00;;;;;;5018063;28;20205;-69
2021/10/27 15:53:40;;;;;;;0.93;0.93;;;15.80;1.00;;;;;;5032349;28;20530;-68
2021/10/27 15:56:05;;;;;;;0.40;0.20;;;15.70;1.00;;;;;;5035062;28;20166;-68
2021/10/27 15:58:31;;;;;;;3.23;2.93;;;15.80;1.00;;;;;;5034612;28;20189;-68
2021/10/27 16:00:57;;;;;;;1.60;1.50;;;15.80;1.00;;;;;;5034178;28;20178;-69
2021/10/27 16:03:22;;;;;;;0.77;0.77;;;15.80;1.00;;;;;;5034497;28;20503;-72
2021/10/27 16:05:50;;;;;;;0.30;0.20;;;15.80;1.00;;;;;;5034521;28;20428;-71
2021/10/27 16:08:19;;;;;;;0.40;0.40;;;15.80;1.00;;;;;;5034379;28;20173;-69
2021/10/27 16:10:47;;;;;;;0.40;0.20;;;15.80;1.00;;;;;;5025111;28;20177;-68
2021/10/27 16:13:13;;;;;;;0.40;0.20;;;15.90;1.00;;;;;;5033967;28;20495;-69
2021/10/27 16:15:51;;;;;;;1.50;0.77;;;16.00;1.00;;;;;;5034239;28;20189;-69
2021/10/27 16:18:17;;;;;;;0.40;0.20;;;15.90;1.00;;;;;;5040904;28;20581;-69
2021/10/27 16:20:44;;;;;;;0.30;0.20;;;15.90;1.00;;;;;;5033458;28;20217;-69
2021/10/27 16:23:11;;;;;;;0.40;0.20;;;16.00;1.00;;;;;;5033629;28;20995;-67
2021/10/27 16:25:37;;;;;;;0.40;0.10;;;16.10;1.00;;;;;;5034121;28;20187;-66
2021/10/27 16:28:03;;;;;;;0.77;0.77;;;16.00;1.00;;;;;;5033747;28;20178;-66
2021/10/27 16:30:30;;;;;;;0.40;0.20;;;15.80;1.00;;;;;;5029836;28;20193;-70
2021/10/27 16:32:56;;;;;;;0.40;0.20;;;15.70;1.00;;;;;;5021833;28;20197;-70
2021/10/27 16:35:23;;;;;;;0.40;0.20;;;15.70;1.00;;;;;;5019637;28;20173;-70
2021/10/27 16:37:49;;;;;;;0.60;0.40;;;15.70;1.00;;;;;;5031634;28;20204;-70
2021/10/27 16:40:15;;;;;;;3.00;2.25;;;15.70;1.00;;;;;;5033107;28;20304;-69
2021/10/27 16:42:41;;;;;;;0.67;0.67;;;15.80;1.00;;;;;;5033309;28;20511;-70
2021/10/27 16:45:09;;;;;;;0.40;0.20;;;15.90;1.00;;;;;;5033353;28;20784;-70
2021/10/27 16:47:35;;;;;;;0.40;0.20;;;16.00;1.00;;;;;;5030811;28;20181;-70
2021/10/27 16:50:03;;;;;;;0.73;0.73;;;16.10;1.00;;;;;;5032799;28;20240;-69
2021/10/27 16:52:28;;;;;;;0.40;0.20;;;16.20;99.90;;;;;;5032960;28;20251;-72
2021/10/27 16:54:56;;;;;;;0.40;0.20;;;16.10;1.00;;;;;;5032968;28;20276;-71
2021/10/27 16:57:22;;;;;;;0.40;0.10;;;16.10;1.00;;;;;;5032709;28;20410;-72
2021/10/27 16:59:49;;;;;;;1.00;0.90;;;16.10;1.00;;;;;;5032675;28;20461;-71
2021/10/27 17:02:14;;;;;;;0.40;0.20;;;15.90;1.00;;;;;;5032480;28;20268;-72
2021/10/27 17:04:40;;;;;;;0.40;0.20;;;16.00;1.00;;;;;;5032694;28;20674;-71
2021/10/27 17:07:06;;;;;;;0.40;0.20;;;16.00;1.00;;;;;;5032844;28;20269;-72
2021/10/27 17:09:31;;;;;;;0.57;0.37;;;15.90;1.00;;;;;;5032519;28;20213;-71
2021/10/27 17:11:57;;;;;;;0.40;0.20;;;15.90;1.00;;;;;;5014757;28;20459;-72
2021/10/27 17:14:22;;;;;;;0.50;0.30;;;15.80;1.00;;;;;;5032571;28;20213;-71
2021/10/27 17:16:48;;;;;;;0.40;0.20;;;15.70;1.00;;;;;;5035147;28;20181;-72
2021/10/27 17:19:14;;;;;;;0.40;0.10;;;15.80;1.00;;;;;;5030042;28;20273;-71
2021/10/27 17:21:41;;;;;;;0.40;0.20;;;15.80;1.00;;;;;;5042891;28;20187;-72
2021/10/27 17:24:08;;;;;;;0.40;0.20;;;16.00;1.00;;;;;;5039562;28;20178;-72
2021/10/27 17:26:35;;;;;;;0.40;0.20;;;16.00;1.00;;;;;;5037881;28;20193;-71
2021/10/27 17:29:03;;;;;;;0.40;0.20;;;16.00;1.00;;;;;;5041498;28;20260;-72
2021/10/27 17:31:30;;;;;;;0.40;0.20;;;16.10;1.00;;;;;;5039524;28;20497;-71
2021/10/27 17:33:57;;;;;;;0.40;0.20;;;16.20;1.00;;;;;;5040502;28;20273;-72
2021/10/27 17:36:22;;;;;;;0.40;0.20;;;16.30;1.00;;;;;;5042536;28;20243;-72
2021/10/27 17:38:48;;;;;;;0.40;0.17;;;16.10;1.00;;;;;;5041376;28;20185;-72